createdAt,value
2019-01-05T00:00:20.639Z,5.62
2019-01-05T00:01:26.948Z,6.03
2019-01-05T00:02:23.347Z,5.35
2019-01-05T00:03:33.336Z,6.58
2019-01-05T00:04:29.528Z,5.22
2019-01-05T00:05:23.206Z,5.12
2019-01-05T00:06:23.704Z,5.40
2019-01-05T00:07:24.021Z,5.83
2019-01-05T00:08:20.031Z,5.33
2019-01-05T00:09:14.966Z,4.75
2019-01-05T00:10:24.549Z,6.40
2019-01-05T00:11:20.775Z,5.35
2019-01-05T00:12:18.423Z,5.50
2019-01-05T00:13:34.221Z,4.85
2019-01-05T00:14:31.413Z,5.22
2019-01-05T00:15:27.216Z,5.22
2019-01-05T00:16:40.159Z,5.65
2019-01-05T00:17:42.983Z,5.60
2019-01-05T00:18:34.308Z,5.35
2019-01-05T00:19:30.952Z,5.45
2019-01-05T00:20:37.834Z,5.20
2019-01-05T00:21:44.259Z,5.42
2019-01-05T00:22:39.679Z,4.62
2019-01-05T00:23:33.547Z,5.25
2019-01-05T00:24:29.224Z,5.87
2019-01-05T00:25:26.476Z,5.45
2019-01-05T00:26:22.612Z,5.25
2019-01-05T00:27:22.444Z,5.45
2019-01-05T00:28:24.347Z,6.10
2019-01-05T00:29:27.736Z,6.42
2019-01-05T00:30:31.029Z,6.12
2019-01-05T00:31:40.451Z,5.65
2019-01-05T00:32:45.988Z,6.42
2019-01-05T00:33:43.472Z,6.33
2019-01-05T00:34:53.067Z,5.97
2019-01-05T00:36:09.290Z,6.15
2019-01-05T00:37:09.462Z,6.50
2019-01-05T00:38:06.498Z,6.95
2019-01-05T00:39:14.493Z,6.60
2019-01-05T00:40:17.312Z,5.83
2019-01-05T00:41:23.704Z,6.00
2019-01-05T00:42:24.554Z,6.53
2019-01-05T00:43:27.631Z,6.37
2019-01-05T00:44:17.771Z,6.30
2019-01-05T00:45:15.261Z,6.83
2019-01-05T00:46:12.900Z,6.53
2019-01-05T00:47:28.983Z,6.80
2019-01-05T00:48:24.930Z,6.22
2019-01-05T00:49:22.368Z,6.75
2019-01-05T00:50:31.869Z,6.30
2019-01-05T00:51:29.630Z,6.15
2019-01-05T00:52:45.186Z,6.45
2019-01-05T00:53:41.012Z,6.62
2019-01-05T00:54:51.047Z,7.05
2019-01-05T00:55:48.899Z,7.22
2019-01-05T00:56:51.907Z,6.33
2019-01-05T00:57:55.968Z,7.37
2019-01-05T00:58:53.220Z,7.00
2019-01-05T00:59:44.044Z,6.92
2019-01-05T01:00:48.019Z,7.37
2019-01-05T01:01:45.566Z,7.10
2019-01-05T01:02:43.524Z,6.92
2019-01-05T01:03:39.641Z,8.10
2019-01-05T01:04:36.158Z,7.45
2019-01-05T01:05:32.478Z,6.72
2019-01-05T01:06:28.598Z,8.30
2019-01-05T01:07:25.532Z,7.37
2019-01-05T01:08:22.981Z,7.87
2019-01-05T01:09:26.776Z,8.30
2019-01-05T01:10:42.839Z,7.70
2019-01-05T01:11:35.791Z,8.90
2019-01-05T01:12:38.872Z,8.68
2019-01-05T01:13:35.270Z,9.48
2019-01-05T01:14:32.227Z,8.28
2019-01-05T01:15:29.881Z,8.23
2019-01-05T01:16:33.676Z,8.40
2019-01-05T01:17:36.968Z,8.13
2019-01-05T01:18:34.095Z,8.43
2019-01-05T01:19:32.995Z,7.70
2019-01-05T01:20:28.573Z,8.00
2019-01-05T01:21:26.317Z,8.15
2019-01-05T01:22:19.343Z,7.72
2019-01-05T01:23:16.929Z,7.22
2019-01-05T01:24:06.487Z,7.97
2019-01-05T01:25:07.020Z,6.78
2019-01-05T01:26:06.918Z,7.00
2019-01-05T01:27:07.369Z,6.92
2019-01-05T01:28:05.176Z,7.20
2019-01-05T01:29:20.969Z,6.60
2019-01-05T01:30:16.512Z,6.42
2019-01-05T01:31:25.041Z,6.03
2019-01-05T01:32:21.597Z,6.50
2019-01-05T01:33:24.884Z,7.03
2019-01-05T01:34:25.620Z,6.25
2019-01-05T01:35:29.094Z,7.20
2019-01-05T01:36:24.599Z,5.50
2019-01-05T01:37:19.835Z,6.47
2019-01-05T01:38:50.516Z,5.90
2019-01-05T01:39:50.858Z,5.60
2019-01-05T01:40:48.250Z,5.65
2019-01-05T01:42:05.689Z,5.95
2019-01-05T01:43:03.654Z,6.25
2019-01-05T01:44:21.873Z,6.67
2019-01-05T01:45:26.281Z,5.80
2019-01-05T01:46:20.519Z,6.17
2019-01-05T01:47:20.978Z,5.85
2019-01-05T01:48:18.495Z,6.22
2019-01-05T01:49:18.731Z,5.67
2019-01-05T01:50:17.592Z,6.40
2019-01-05T01:51:15.374Z,5.45
2019-01-05T01:52:12.671Z,6.28
2019-01-05T01:53:08.413Z,5.78
2019-01-05T01:54:08.862Z,6.22
2019-01-05T01:55:06.378Z,6.17
2019-01-05T01:56:06.644Z,6.05
2019-01-05T01:57:07.316Z,6.03
2019-01-05T01:58:12.732Z,5.65
2019-01-05T01:59:09.454Z,6.45
2019-01-05T02:00:07.157Z,5.60
2019-01-05T02:01:00.001Z,6.30
2019-01-05T02:01:59.349Z,6.10
2019-01-05T02:03:05.869Z,5.80
2019-01-05T02:04:01.860Z,5.70
2019-01-05T02:04:59.787Z,5.70
2019-01-05T02:05:57.200Z,6.08
2019-01-05T02:06:44.360Z,6.03
2019-01-05T02:07:43.247Z,5.60
2019-01-05T02:08:58.929Z,5.60
2019-01-05T02:09:55.216Z,5.58
2019-01-05T02:10:50.820Z,5.80
2019-01-05T02:11:51.436Z,5.87
2019-01-05T02:12:52.370Z,5.45
2019-01-05T02:13:47.964Z,6.62
2019-01-05T02:14:51.701Z,6.05
2019-01-05T02:15:53.503Z,6.35
2019-01-05T02:16:56.687Z,5.97
2019-01-05T02:18:08.060Z,5.62
2019-01-05T02:19:57.115Z,6.10
2019-01-05T02:21:18.426Z,5.78
2019-01-05T02:23:04.407Z,6.30
2019-01-05T02:24:39.054Z,5.87
2019-01-05T02:26:16.818Z,6.08
2019-01-05T02:27:34.916Z,5.15
2019-01-05T02:28:46.883Z,5.00
2019-01-05T02:30:23.087Z,5.45
2019-01-05T02:31:56.658Z,5.65
2019-01-05T02:33:42.375Z,5.17
2019-01-05T02:35:14.525Z,5.15
2019-01-05T02:36:55.498Z,6.12
2019-01-05T02:38:23.208Z,5.28
2019-01-05T02:40:17.020Z,4.85
2019-01-05T02:42:02.899Z,5.22
2019-01-05T02:43:33.117Z,5.70
2019-01-05T02:45:22.274Z,4.70
2019-01-05T02:47:14.203Z,5.35
2019-01-05T02:48:52.685Z,5.35
2019-01-05T02:50:43.594Z,5.65
2019-01-05T02:51:58.632Z,5.50
2019-01-05T02:53:23.346Z,5.67
2019-01-05T02:54:43.968Z,6.20
2019-01-05T02:56:32.232Z,4.90
2019-01-05T02:58:09.854Z,5.85
2019-01-05T02:59:31.459Z,5.35
2019-01-05T03:01:14.455Z,5.87
2019-01-05T03:02:48.588Z,5.87
2019-01-05T03:04:30.071Z,5.10
2019-01-05T03:06:25.138Z,5.30
2019-01-05T03:08:20.054Z,6.08
2019-01-05T03:09:50.886Z,5.15
2019-01-05T03:11:22.517Z,5.65
2019-01-05T03:13:07.368Z,5.58
2019-01-05T03:42:06.086Z,5.05
2019-01-05T03:43:31.381Z,4.70
2019-01-05T03:44:53.489Z,5.80
2019-01-05T03:46:43.358Z,5.20
2019-01-05T03:48:13.216Z,5.15
2019-01-05T03:49:53.839Z,4.45
2019-01-05T03:51:35.762Z,4.90
2019-01-05T03:53:20.022Z,5.75
2019-01-05T03:55:02.708Z,5.25
2019-01-05T03:56:23.325Z,4.50
2019-01-05T03:58:13.682Z,5.12
2019-01-05T03:59:42.906Z,5.33
2019-01-05T04:01:19.090Z,5.45
2019-01-05T04:03:19.256Z,5.20
2019-01-05T04:04:59.559Z,4.70
2019-01-05T04:06:40.189Z,5.00
2019-01-05T04:08:29.151Z,5.20
2019-01-05T04:09:54.921Z,5.72
2019-01-05T04:11:45.031Z,4.78
2019-01-05T04:13:32.493Z,4.90
2019-01-05T04:14:58.960Z,5.83
2019-01-05T04:16:42.096Z,4.58
2019-01-05T04:18:38.357Z,5.20
2019-01-05T04:20:10.619Z,4.65
2019-01-05T04:21:57.763Z,4.90
2019-01-05T04:23:47.606Z,5.27
2019-01-05T04:25:12.657Z,4.78
2019-01-05T04:26:54.080Z,5.60
2019-01-05T04:28:52.974Z,4.97
2019-01-05T04:30:36.912Z,5.70
2019-01-05T04:32:04.673Z,5.92
2019-01-05T04:33:32.587Z,5.30
2019-01-05T04:35:07.971Z,5.70
2019-01-05T04:36:46.581Z,4.55
2019-01-05T04:38:37.230Z,5.12
2019-01-05T04:40:31.688Z,4.65
2019-01-05T04:42:05.485Z,5.47
2019-01-05T04:43:46.824Z,4.97
2019-01-05T04:45:15.962Z,5.00
2019-01-05T04:46:54.649Z,5.17
2019-01-05T04:48:28.658Z,5.40
2019-01-05T04:50:05.254Z,5.80
2019-01-05T04:51:31.012Z,5.13
2019-01-05T04:53:03.223Z,5.10
2019-01-05T04:54:56.990Z,5.15
2019-01-05T04:56:43.492Z,5.00
2019-01-05T04:58:37.681Z,5.42
2019-01-05T05:00:24.108Z,5.78
2019-01-05T05:02:18.181Z,5.15
2019-01-05T05:03:54.628Z,4.80
2019-01-05T05:05:31.776Z,5.15
2019-01-05T05:07:14.987Z,4.53
2019-01-05T05:09:00.222Z,5.42
2019-01-05T05:10:57.626Z,5.20
2019-01-05T05:12:33.729Z,5.15
2019-01-05T05:14:25.163Z,4.80
2019-01-05T05:16:05.879Z,4.70
2019-01-05T05:17:39.740Z,5.50
2019-01-05T05:18:52.640Z,5.58
2019-01-05T05:20:13.122Z,4.80
2019-01-05T05:22:06.374Z,5.00
2019-01-05T05:23:46.628Z,5.25
2019-01-05T05:25:07.956Z,5.10
2019-01-05T05:26:29.022Z,4.95
2019-01-05T05:28:22.549Z,5.00
2019-01-05T05:29:57.010Z,5.20
2019-01-05T05:31:28.764Z,5.90
2019-01-05T05:33:02.131Z,5.20
2019-01-05T05:34:49.627Z,5.15
2019-01-05T05:36:42.874Z,5.58
2019-01-05T05:38:24.169Z,5.65
2019-01-05T05:40:00.088Z,4.53
2019-01-05T05:41:40.833Z,5.37
2019-01-05T05:43:14.802Z,5.63
2019-01-05T05:44:48.201Z,5.20
2019-01-05T05:46:41.083Z,5.50
2019-01-05T05:48:36.497Z,5.50
2019-01-05T05:50:21.924Z,5.62
2019-01-05T05:51:52.173Z,5.90
2019-01-05T05:53:28.625Z,4.80
2019-01-05T05:55:34.961Z,4.63
2019-01-05T05:57:19.059Z,4.97
2019-01-05T05:58:42.713Z,4.97
2019-01-05T06:00:10.252Z,5.28
2019-01-05T06:01:46.348Z,5.27
2019-01-05T06:03:17.290Z,4.85
2019-01-05T06:05:14.993Z,5.83
2019-01-05T06:07:03.428Z,5.45
2019-01-05T06:08:51.478Z,5.10
2019-01-05T06:11:01.312Z,5.10
2019-01-05T06:12:36.245Z,5.12
2019-01-05T06:14:20.941Z,5.80
2019-01-05T06:15:47.009Z,5.67
2019-01-05T06:17:31.785Z,4.77
2019-01-05T06:19:18.408Z,4.80
2019-01-05T06:21:04.717Z,5.30
2019-01-05T06:22:34.937Z,5.00
2019-01-05T06:24:18.865Z,5.83
2019-01-05T06:25:43.838Z,4.63
2019-01-05T06:27:33.423Z,5.23
2019-01-05T06:29:12.779Z,4.83
2019-01-05T06:30:41.072Z,5.40
2019-01-05T06:32:14.931Z,4.60
2019-01-05T06:34:09.136Z,5.20
2019-01-05T06:35:59.653Z,5.17
2019-01-05T06:37:30.865Z,5.27
2019-01-05T06:39:15.746Z,4.70
2019-01-05T06:41:00.381Z,5.30
2019-01-05T06:42:30.081Z,4.70
2019-01-05T06:44:29.610Z,5.50
2019-01-05T06:49:25.703Z,4.95
2019-01-05T06:51:03.261Z,5.03
2019-01-05T06:53:56.819Z,4.53
2019-01-05T06:55:30.359Z,5.03
2019-01-05T06:57:19.502Z,4.37
2019-01-05T06:58:46.442Z,4.27
2019-01-05T07:00:15.609Z,5.00
2019-01-05T07:01:54.165Z,5.07
2019-01-05T07:03:16.879Z,5.00
2019-01-05T07:04:40.119Z,4.60
2019-01-05T07:06:14.995Z,4.17
2019-01-05T07:07:54.523Z,5.33
2019-01-05T07:09:25.339Z,4.43
2019-01-05T07:11:00.724Z,4.97
2019-01-05T07:12:50.393Z,4.55
2019-01-05T07:14:27.595Z,4.30
2019-01-05T07:16:03.667Z,4.70
2019-01-05T07:17:33.039Z,4.30
2019-01-05T07:18:58.182Z,4.47
2019-01-05T07:21:05.221Z,4.53
2019-01-05T07:22:57.065Z,4.17
2019-01-05T07:24:26.140Z,4.53
2019-01-05T07:26:00.710Z,4.93
2019-01-05T07:27:35.693Z,4.40
2019-01-05T07:29:06.709Z,4.65
2019-01-05T07:30:46.745Z,4.03
2019-01-05T07:32:25.541Z,3.80
2019-01-05T07:33:57.568Z,5.13
2019-01-05T07:35:16.635Z,4.60
2019-01-05T07:37:04.876Z,4.60
2019-01-05T07:38:37.106Z,4.83
2019-01-05T07:40:17.259Z,5.23
2019-01-05T07:42:08.745Z,4.00
2019-01-05T07:43:48.987Z,4.70
2019-01-05T07:45:17.189Z,4.37
2019-01-05T07:46:52.686Z,4.80
2019-01-05T07:48:22.895Z,4.17
2019-01-05T07:49:56.120Z,4.35
2019-01-05T07:51:49.230Z,4.50
2019-01-05T07:53:23.227Z,4.30
2019-01-05T07:55:04.138Z,4.50
2019-01-05T07:56:37.221Z,4.80
2019-01-05T07:58:01.387Z,4.20
2019-01-05T08:00:04.510Z,3.60
2019-01-05T08:01:47.964Z,4.97
2019-01-05T08:03:25.650Z,4.27
2019-01-05T08:05:13.883Z,3.83
2019-01-05T08:07:07.703Z,4.83
2019-01-05T08:08:40.696Z,4.40
2019-01-05T08:10:20.371Z,4.57
2019-01-05T08:12:36.708Z,4.83
2019-01-05T08:14:19.304Z,4.00
2019-01-05T08:15:39.628Z,4.27
2019-01-05T08:17:19.625Z,4.20
2019-01-05T08:18:58.326Z,4.10
2019-01-05T08:20:46.239Z,3.40
2019-01-05T08:22:51.727Z,3.33
2019-01-05T08:26:48.550Z,3.93
2019-01-05T08:28:22.720Z,3.90
2019-01-05T08:29:55.996Z,4.00
2019-01-05T08:31:25.045Z,4.47
2019-01-05T08:32:58.483Z,3.53
2019-01-05T08:34:28.442Z,4.00
2019-01-05T08:36:06.438Z,3.70
2019-01-05T08:37:55.003Z,4.20
2019-01-05T08:39:31.072Z,3.73
2019-01-05T08:40:58.679Z,3.80
2019-01-05T08:42:40.067Z,3.13
2019-01-05T08:44:14.823Z,3.50
2019-01-05T08:45:56.900Z,3.07
2019-01-05T08:47:45.783Z,3.47
2019-01-05T08:49:23.255Z,3.10
2019-01-05T08:50:58.509Z,3.87
2019-01-05T08:52:41.075Z,3.57
2019-01-05T08:54:27.412Z,3.50
2019-01-05T08:56:00.078Z,3.60
2019-01-05T08:57:36.454Z,4.30
2019-01-05T08:59:15.018Z,3.43
2019-01-05T09:01:04.327Z,3.70
2019-01-05T09:03:06.284Z,3.33
2019-01-05T09:05:03.840Z,3.33
2019-01-05T09:07:08.181Z,3.00
2019-01-05T09:08:54.756Z,3.33
2019-01-05T09:10:43.407Z,4.00
2019-01-05T09:12:28.600Z,3.50
2019-01-05T09:13:50.635Z,3.00
2019-01-05T09:15:22.149Z,3.43
2019-01-05T09:17:15.315Z,3.00
2019-01-05T09:18:53.417Z,3.33
2019-01-05T09:20:35.670Z,2.90
2019-01-05T09:22:10.368Z,3.63
2019-01-05T09:24:09.303Z,3.40
2019-01-05T09:25:56.268Z,3.30
2019-01-05T09:27:36.577Z,4.07
2019-01-05T09:29:19.370Z,3.27
2019-01-05T09:31:08.864Z,3.70
2019-01-05T09:32:42.110Z,2.97
2019-01-05T09:34:03.042Z,3.50
2019-01-05T09:35:49.786Z,4.13
2019-01-05T09:37:36.412Z,4.10
2019-01-05T09:39:03.355Z,4.00
2019-01-05T09:40:40.957Z,3.90
2019-01-05T09:42:20.259Z,3.80
2019-01-05T09:44:06.298Z,4.30
2019-01-05T09:45:53.384Z,3.70
2019-01-05T09:47:33.820Z,3.40
2019-01-05T09:48:57.190Z,4.10
2019-01-05T09:50:30.779Z,3.83
2019-01-05T09:52:16.831Z,3.80
2019-01-05T09:54:25.520Z,4.20
2019-01-05T09:56:02.951Z,3.80
2019-01-05T09:57:49.255Z,3.90
2019-01-05T09:59:55.541Z,3.97
2019-01-05T10:01:58.979Z,3.87
2019-01-05T10:03:41.276Z,4.50
2019-01-05T10:05:23.737Z,4.27
2019-01-05T10:06:57.266Z,3.67
2019-01-05T10:08:44.864Z,4.33
2019-01-05T10:10:16.129Z,4.00
2019-01-05T10:12:06.959Z,4.17
2019-01-05T10:13:51.241Z,3.50
2019-01-05T10:15:37.973Z,3.67
2019-01-05T10:17:28.845Z,3.90
2019-01-05T10:18:48.309Z,4.57
2019-01-05T10:20:21.895Z,3.70
2019-01-05T10:22:00.574Z,3.80
2019-01-05T10:23:49.876Z,3.20
2019-01-05T10:25:40.792Z,3.60
2019-01-05T10:27:14.503Z,4.30
2019-01-05T10:29:09.051Z,4.50
2019-01-05T10:31:12.775Z,3.70
2019-01-05T10:32:48.898Z,4.13
2019-01-05T10:34:08.663Z,4.30
2019-01-05T10:36:06.869Z,3.63
2019-01-05T10:37:52.522Z,3.90
2019-01-05T10:39:41.836Z,3.70
2019-01-05T10:41:20.639Z,3.60
2019-01-05T10:43:08.563Z,3.40
2019-01-05T10:44:55.628Z,3.93
2019-01-05T10:46:26.879Z,4.57
2019-01-05T10:48:02.203Z,3.70
2019-01-05T10:49:50.781Z,3.57
2019-01-05T10:51:44.101Z,4.00
2019-01-05T10:53:07.939Z,4.10
2019-01-05T10:54:38.028Z,4.20
2019-01-05T10:56:21.416Z,3.60
2019-01-05T10:57:47.461Z,3.90
2019-01-05T10:59:28.697Z,4.30
2019-01-05T11:01:07.169Z,4.20
2019-01-05T11:03:12.015Z,4.20
2019-01-05T11:04:55.197Z,3.90
2019-01-05T11:06:36.384Z,4.20
2019-01-05T11:08:10.886Z,4.30
2019-01-05T11:09:29.745Z,3.60
2019-01-05T11:11:45.946Z,3.50
2019-01-05T11:13:34.242Z,3.50
2019-01-05T11:15:24.501Z,3.90
2019-01-05T11:17:07.032Z,4.63
2019-01-05T11:18:44.935Z,4.33
2019-01-05T11:20:28.353Z,3.73
2019-01-05T11:22:05.326Z,4.10
2019-01-05T11:23:38.230Z,4.10
2019-01-05T11:25:03.199Z,4.17
2019-01-05T11:26:45.460Z,3.80
2019-01-05T11:28:24.942Z,3.90
2019-01-05T11:30:11.313Z,3.90
2019-01-05T11:32:07.873Z,3.73
2019-01-05T11:33:41.099Z,3.90
2019-01-05T11:35:43.158Z,4.63
2019-01-05T11:37:22.126Z,3.60
2019-01-05T11:38:52.765Z,4.33
2019-01-05T11:40:59.161Z,3.77
2019-01-05T11:42:45.641Z,3.77
2019-01-05T11:44:28.995Z,3.67
2019-01-05T11:46:35.590Z,3.83
2019-01-05T11:48:05.095Z,3.97
2019-01-05T11:49:28.730Z,4.43
2019-01-05T11:51:11.791Z,4.90
2019-01-05T11:52:46.887Z,4.00
2019-01-05T11:54:27.340Z,3.93
2019-01-05T11:56:08.198Z,4.30
2019-01-05T11:57:30.145Z,4.83
2019-01-05T11:59:10.104Z,4.07
2019-01-05T12:00:47.166Z,4.20
2019-01-05T12:02:31.771Z,3.97
2019-01-05T12:04:12.799Z,4.50
2019-01-05T12:05:58.947Z,4.83
2019-01-05T12:07:44.937Z,4.80
2019-01-05T12:09:14.041Z,4.60
2019-01-05T12:10:57.646Z,4.70
2019-01-05T12:12:38.493Z,4.40
2019-01-05T12:13:56.754Z,4.63
2019-01-05T12:15:42.826Z,4.10
2019-01-05T12:17:12.261Z,4.30
2019-01-05T12:18:56.198Z,4.80
2019-01-05T12:20:34.891Z,4.50
2019-01-05T12:22:27.977Z,4.10
2019-01-05T12:24:27.188Z,4.80
2019-01-05T12:26:05.734Z,4.33
2019-01-05T12:28:07.831Z,4.37
2019-01-05T12:29:38.626Z,4.50
2019-01-05T12:31:13.484Z,4.10
2019-01-05T12:32:42.727Z,5.20
2019-01-05T12:34:19.444Z,4.60
2019-01-05T12:36:03.704Z,4.60
2019-01-05T12:37:34.074Z,4.87
2019-01-05T12:39:23.248Z,4.30
2019-01-05T12:41:05.472Z,4.50
2019-01-05T12:42:47.203Z,4.63
2019-01-05T12:44:41.687Z,4.50
2019-01-05T12:46:11.158Z,4.50
2019-01-05T12:47:53.506Z,5.20
2019-01-05T12:49:05.802Z,5.83
2019-01-05T12:50:42.517Z,5.37
2019-01-05T12:52:35.895Z,4.70
2019-01-05T12:54:33.451Z,5.13
2019-01-05T12:56:04.161Z,4.73
2019-01-05T12:57:34.646Z,4.87
2019-01-05T12:59:23.849Z,4.55
2019-01-05T13:01:01.335Z,5.05
2019-01-05T13:02:43.960Z,5.13
2019-01-05T13:04:09.659Z,4.90
2019-01-05T13:05:38.978Z,4.67
2019-01-05T13:07:18.588Z,5.87
2019-01-05T13:08:48.086Z,5.20
2019-01-05T13:10:17.916Z,4.93
2019-01-05T13:11:42.627Z,5.27
2019-01-05T13:13:24.621Z,4.92
2019-01-05T13:15:05.050Z,5.78
2019-01-05T13:16:33.668Z,5.40
2019-01-05T13:17:59.405Z,5.72
2019-01-05T13:19:22.817Z,5.10
2019-01-05T13:21:15.386Z,5.45
2019-01-05T13:22:50.753Z,5.17
2019-01-05T13:24:15.474Z,4.90
2019-01-05T13:26:03.063Z,4.63
2019-01-05T13:27:37.774Z,4.77
2019-01-05T13:29:39.505Z,5.37
2019-01-05T13:31:00.400Z,5.92
2019-01-05T13:33:07.830Z,4.40
2019-01-05T13:35:04.155Z,5.20
2019-01-05T13:36:59.624Z,5.08
2019-01-05T13:38:50.790Z,5.33
2019-01-05T13:40:20.872Z,5.85
2019-01-05T13:41:43.644Z,4.60
2019-01-05T13:43:16.438Z,4.93
2019-01-05T13:44:48.346Z,4.57
2019-01-05T13:46:19.202Z,4.70
2019-01-05T13:48:10.164Z,4.87
2019-01-05T13:49:35.679Z,5.33
2019-01-05T13:51:27.038Z,5.12
2019-01-05T13:53:03.025Z,5.20
2019-01-05T13:54:32.442Z,4.72
2019-01-05T13:55:28.205Z,5.10
2019-01-05T13:56:53.205Z,4.80
2019-01-05T13:57:59.263Z,5.03
2019-01-05T13:58:54.331Z,5.40
2019-01-05T13:59:51.080Z,4.80
2019-01-05T14:00:50.907Z,4.53
2019-01-05T14:01:57.561Z,4.70
2019-01-05T14:03:09.536Z,5.40
2019-01-05T14:04:19.216Z,5.85
2019-01-05T14:05:14.081Z,5.00
2019-01-05T14:06:09.124Z,4.75
2019-01-05T14:07:08.780Z,5.15
2019-01-05T14:08:05.492Z,5.70
2019-01-05T14:09:07.487Z,8.15
2019-01-05T14:10:04.154Z,13.45
2019-01-05T14:11:06.645Z,17.23
2019-01-05T14:12:00.236Z,22.22
2019-01-05T14:12:55.301Z,24.53
2019-01-05T14:13:50.834Z,25.25
2019-01-05T14:14:45.729Z,26.10
2019-01-05T14:15:57.819Z,26.63
2019-01-05T14:16:54.449Z,27.43
2019-01-05T14:17:52.392Z,27.32
2019-01-05T14:18:49.073Z,28.12
2019-01-05T14:19:44.248Z,25.85
2019-01-05T14:20:39.975Z,25.92
2019-01-05T14:21:34.856Z,25.77
2019-01-05T14:22:30.147Z,24.90
2019-01-05T14:23:25.061Z,33.40
2019-01-05T14:24:20.035Z,36.83
2019-01-05T14:25:15.524Z,43.63
2019-01-05T14:26:18.074Z,44.77
2019-01-05T14:27:12.181Z,51.97
2019-01-05T14:28:18.005Z,50.90
2019-01-05T14:29:14.704Z,53.60
2019-01-05T14:30:26.701Z,57.25
2019-01-05T14:31:41.208Z,55.60
2019-01-05T14:32:40.384Z,50.97
2019-01-05T14:33:35.302Z,48.07
2019-01-05T14:34:28.522Z,44.50
2019-01-05T14:35:34.356Z,44.67
2019-01-05T14:36:37.036Z,41.63
2019-01-05T14:37:33.261Z,37.53
2019-01-05T14:38:28.420Z,35.83
2019-01-05T14:39:38.360Z,33.90
2019-01-05T14:40:49.933Z,29.70
2019-01-05T14:41:44.909Z,26.00
2019-01-05T14:42:40.346Z,24.17
2019-01-05T14:43:45.954Z,20.40
2019-01-05T14:44:53.357Z,16.80
2019-01-05T14:45:58.651Z,16.20
2019-01-05T14:46:53.646Z,15.17
2019-01-05T14:48:02.131Z,13.27
2019-01-05T14:48:57.358Z,13.43
2019-01-05T14:49:53.523Z,13.05
2019-01-05T14:51:05.171Z,12.20
2019-01-05T14:52:17.263Z,11.30
2019-01-05T14:53:13.076Z,10.70
2019-01-05T14:54:15.630Z,10.23
2019-01-05T14:55:27.570Z,9.67
2019-01-05T14:56:39.241Z,11.35
2019-01-05T14:57:41.971Z,10.75
2019-01-05T14:58:37.272Z,9.10
2019-01-05T14:59:32.152Z,9.40
2019-01-05T15:00:28.063Z,9.40
2019-01-05T15:01:30.539Z,9.83
2019-01-05T15:02:37.023Z,8.18
2019-01-05T15:03:32.056Z,8.17
2019-01-05T15:04:34.821Z,7.20
2019-01-05T15:05:43.418Z,7.33
2019-01-05T15:06:38.519Z,6.58
2019-01-05T15:07:41.294Z,7.70
2019-01-05T15:08:46.954Z,6.53
2019-01-05T15:09:49.446Z,6.67
2019-01-05T15:10:47.931Z,6.13
2019-01-05T15:11:43.072Z,6.77
2019-01-05T15:12:52.057Z,7.80
2019-01-05T15:13:44.152Z,13.40
2019-01-05T15:14:49.669Z,19.50
2019-01-05T15:15:49.402Z,16.00
2019-01-05T15:17:04.070Z,18.57
2019-01-05T15:18:06.495Z,17.70
2019-01-05T15:19:01.523Z,23.20
2019-01-05T15:19:57.757Z,20.90
2019-01-05T15:20:52.756Z,21.43
2019-01-05T15:21:53.173Z,22.07
2019-01-05T15:23:04.740Z,19.30
2019-01-05T15:24:01.413Z,20.07
2019-01-05T15:24:56.431Z,19.33
2019-01-05T15:26:05.110Z,18.10
2019-01-05T15:26:59.982Z,16.03
2019-01-05T15:27:59.397Z,14.83
2019-01-05T15:28:59.136Z,13.93
2019-01-05T15:30:14.504Z,13.43
2019-01-05T15:31:19.644Z,12.73
2019-01-05T15:32:22.214Z,11.60
2019-01-05T15:33:17.448Z,10.83
2019-01-05T15:34:16.911Z,9.70
2019-01-05T15:35:11.603Z,10.08
2019-01-05T15:36:06.673Z,8.50
2019-01-05T15:37:01.283Z,7.83
2019-01-05T15:38:16.169Z,7.75
2019-01-05T15:39:11.631Z,7.80
2019-01-05T15:40:26.751Z,7.67
2019-01-05T15:41:26.328Z,8.50
2019-01-05T15:42:28.976Z,7.30
2019-01-05T15:43:37.713Z,8.13
2019-01-05T15:44:32.597Z,7.00
2019-01-05T15:45:44.263Z,6.90
2019-01-05T15:46:49.764Z,6.50
2019-01-05T15:47:44.619Z,6.27
2019-01-05T15:48:39.889Z,6.53
2019-01-05T15:49:46.331Z,6.80
2019-01-05T15:50:44.945Z,6.78
2019-01-05T15:51:44.435Z,7.00
2019-01-05T15:52:39.615Z,7.75
2019-01-05T15:53:45.261Z,6.90
2019-01-05T15:54:44.783Z,6.70
2019-01-05T15:55:53.202Z,6.30
2019-01-05T15:56:48.123Z,6.20
2019-01-05T15:57:50.723Z,6.73
2019-01-05T15:58:47.689Z,5.90
2019-01-05T15:59:56.901Z,6.23
2019-01-05T16:00:52.361Z,7.10
2019-01-05T16:01:51.955Z,7.20
2019-01-05T16:02:53.973Z,5.80
2019-01-05T16:03:53.384Z,6.27
2019-01-05T16:04:50.103Z,6.22
2019-01-05T16:05:52.796Z,5.12
2019-01-05T16:06:55.264Z,5.95
2019-01-05T16:07:54.623Z,5.28
2019-01-05T16:09:01.861Z,4.90
2019-01-05T16:10:12.785Z,5.05
2019-01-05T16:11:07.422Z,4.90
2019-01-05T16:12:05.591Z,4.70
2019-01-05T16:13:08.279Z,4.95
2019-01-05T16:14:03.305Z,5.25
2019-01-05T16:14:58.414Z,4.90
2019-01-05T16:15:53.440Z,4.90
2019-01-05T16:16:56.361Z,5.17
2019-01-05T16:17:51.654Z,6.35
2019-01-05T16:19:00.395Z,6.20
2019-01-05T16:20:06.279Z,7.00
2019-01-05T16:21:01.046Z,7.00
2019-01-05T16:21:56.535Z,7.10
2019-01-05T16:22:56.096Z,6.17
2019-01-05T16:24:03.643Z,6.12
2019-01-05T16:25:12.447Z,6.70
2019-01-05T16:26:21.237Z,7.50
2019-01-05T16:27:32.981Z,9.95
2019-01-05T16:28:41.768Z,13.83
2019-01-05T16:29:44.285Z,15.28
2019-01-05T16:30:46.987Z,16.35
2019-01-05T16:31:41.714Z,13.47
2019-01-05T16:32:38.498Z,12.00
2019-01-05T16:33:43.951Z,13.93
2019-01-05T16:34:39.016Z,11.63
2019-01-05T16:35:44.607Z,11.95
2019-01-05T16:36:53.100Z,11.95
2019-01-05T16:37:47.814Z,11.15
2019-01-05T16:38:50.346Z,10.80
2019-01-05T16:39:49.752Z,10.55
2019-01-05T16:40:55.633Z,10.13
2019-01-05T16:42:02.108Z,9.80
2019-01-05T16:42:57.047Z,8.60
2019-01-05T16:43:52.350Z,9.28
2019-01-05T16:44:47.447Z,8.87
2019-01-05T16:45:47.063Z,8.60
2019-01-05T16:46:52.859Z,9.58
2019-01-05T16:47:53.255Z,8.33
2019-01-05T16:48:48.690Z,9.90
2019-01-05T16:49:43.921Z,8.80
2019-01-05T16:50:39.077Z,9.95
2019-01-05T16:51:47.896Z,10.20
2019-01-05T16:52:47.717Z,11.03
2019-01-05T16:53:44.417Z,12.00
2019-01-05T16:54:56.255Z,12.75
2019-01-05T16:55:51.443Z,14.73
2019-01-05T16:56:48.138Z,14.20
2019-01-05T16:57:44.878Z,16.27
2019-01-05T16:58:41.941Z,14.63
2019-01-05T16:59:44.169Z,14.80
2019-01-05T17:00:39.606Z,13.23
2019-01-05T17:01:39.256Z,13.83
2019-01-05T17:02:36.041Z,13.05
2019-01-05T17:03:35.735Z,11.80
2019-01-05T17:04:37.953Z,12.20
2019-01-05T17:05:43.378Z,11.08
2019-01-05T17:06:34.991Z,11.63
2019-01-05T17:07:49.928Z,11.40
2019-01-05T17:08:43.568Z,11.10
2019-01-05T17:09:46.535Z,10.47
2019-01-05T17:10:41.287Z,9.75
2019-01-05T17:11:47.265Z,9.33
2019-01-05T17:12:46.784Z,8.97
2019-01-05T17:13:42.782Z,10.50
2019-01-05T17:14:37.812Z,9.43
2019-01-05T17:15:34.892Z,10.00
2019-01-05T17:16:41.054Z,8.70
2019-01-05T17:17:37.692Z,9.27
2019-01-05T17:18:33.122Z,9.20
2019-01-05T17:19:47.713Z,8.50
2019-01-05T17:20:53.184Z,8.95
2019-01-05T17:22:01.728Z,8.53
2019-01-05T17:22:56.977Z,8.20
2019-01-05T17:23:51.708Z,8.18
2019-01-05T17:24:54.618Z,7.70
2019-01-05T17:25:49.390Z,7.80
2019-01-05T17:26:49.092Z,7.10
2019-01-05T17:27:45.782Z,7.67
2019-01-05T17:28:40.768Z,7.42
2019-01-05T17:29:41.635Z,6.30
2019-01-05T17:30:38.221Z,6.65
2019-01-05T17:31:33.536Z,6.90
2019-01-05T17:32:28.668Z,7.05
2019-01-05T17:33:28.946Z,6.90
2019-01-05T17:34:37.999Z,6.30
2019-01-05T17:35:33.015Z,5.87
2019-01-05T17:36:35.779Z,6.27
2019-01-05T17:37:50.495Z,5.20
2019-01-05T17:38:56.304Z,5.23
2019-01-05T17:39:55.979Z,5.67
2019-01-05T17:40:52.207Z,5.10
2019-01-05T17:41:50.907Z,6.08
2019-01-05T17:42:50.590Z,5.20
2019-01-05T17:43:46.197Z,5.72
2019-01-05T17:44:41.875Z,5.67
2019-01-05T17:45:38.548Z,5.13
2019-01-05T17:46:33.677Z,5.00
2019-01-05T17:47:33.130Z,5.33
2019-01-05T17:48:28.226Z,5.10
2019-01-05T17:49:23.173Z,5.20
2019-01-05T17:50:19.912Z,5.00
2019-01-05T17:51:19.679Z,4.85
2019-01-05T17:52:14.789Z,4.93
2019-01-05T17:53:10.132Z,4.92
2019-01-05T17:54:05.040Z,5.57
2019-01-05T17:55:16.850Z,5.20
2019-01-05T17:56:19.155Z,5.00
2019-01-05T17:57:27.555Z,4.95
2019-01-05T17:58:39.073Z,5.17
2019-01-05T17:59:35.737Z,4.47
2019-01-05T18:00:30.726Z,4.80
2019-01-05T18:01:25.951Z,4.65
2019-01-05T18:02:34.791Z,4.40
2019-01-05T18:03:34.402Z,4.72
2019-01-05T18:04:47.931Z,4.90
2019-01-05T18:05:47.575Z,5.15
2019-01-05T18:06:56.489Z,4.70
2019-01-05T18:07:51.477Z,5.10
2019-01-05T18:08:53.979Z,5.58
2019-01-05T18:10:09.302Z,4.95
2019-01-05T18:11:09.505Z,5.42
2019-01-05T18:12:02.837Z,5.00
2019-01-05T18:13:11.184Z,5.80
2019-01-05T18:14:06.712Z,6.12
2019-01-05T18:15:17.124Z,6.05
2019-01-05T18:16:11.935Z,7.58
2019-01-05T18:17:02.190Z,7.78
2019-01-05T18:17:57.228Z,7.42
2019-01-05T18:18:57.138Z,8.83
2019-01-05T18:19:59.617Z,10.08